sensor_id;sensor_type;location;lat;lon;timestamp;temperature;humidity
10722;DHT22;5412;59.450;18.124;2023-04-03T00:01:32;-1.50;99.90
10722;DHT22;5412;59.450;18.124;2023-04-03T00:03:58;-1.60;99.90
10722;DHT22;5412;59.450;18.124;2023-04-03T00:06:25;-1.50;99.90
10722;DHT22;5412;59.450;18.124;2023-04-03T00:08:50;-1.50;99.90
10722;DHT22;5412;59.450;18.124;2023-04-03T00:11:17;-1.40;99.90
10722;DHT22;5412;59.450;18.124;2023-04-03T00:13:43;-1.40;99.90
10722;DHT22;5412;59.450;18.124;2023-04-03T00:16:09;-1.40;99.90
10722;DHT22;5412;59.450;18.124;2023-04-03T00:18:36;-1.40;99.90
10722;DHT22;5412;59.450;18.124;2023-04-03T00:21:02;-1.60;99.90
10722;DHT22;5412;59.450;18.124;2023-04-03T00:23:28;-1.40;99.90
10722;DHT22;5412;59.450;18.124;2023-04-03T00:25:54;-1.40;99.90
10722;DHT22;5412;59.450;18.124;2023-04-03T00:28:21;-1.30;99.90
10722;DHT22;5412;59.450;18.124;2023-04-03T00:30:48;-1.30;99.90
10722;DHT22;5412;59.450;18.124;2023-04-03T00:33:14;-1.30;99.90
10722;DHT22;5412;59.450;18.124;2023-04-03T00:35:40;-1.30;99.90
10722;DHT22;5412;59.450;18.124;2023-04-03T00:38:06;-1.30;99.90
10722;DHT22;5412;59.450;18.124;2023-04-03T00:40:42;-1.30;99.90
10722;DHT22;5412;59.450;18.124;2023-04-03T00:43:23;-1.30;99.90
10722;DHT22;5412;59.450;18.124;2023-04-03T00:45:52;-1.30;99.90
10722;DHT22;5412;59.450;18.124;2023-04-03T00:50:59;-1.30;99.90
10722;DHT22;5412;59.450;18.124;2023-04-03T00:53:40;-1.30;99.90
10722;DHT22;5412;59.450;18.124;2023-04-03T00:56:09;-1.30;99.90
10722;DHT22;5412;59.450;18.124;2023-04-03T00:59:19;-1.20;99.90
10722;DHT22;5412;59.450;18.124;2023-04-03T01:01:43;-1.20;99.90
10722;DHT22;5412;59.450;18.124;2023-04-03T01:04:34;-1.30;99.90
10722;DHT22;5412;59.450;18.124;2023-04-03T01:07:08;-1.30;99.90
10722;DHT22;5412;59.450;18.124;2023-04-03T01:09:35;-1.30;99.90
10722;DHT22;5412;59.450;18.124;2023-04-03T01:12:34;-1.30;99.90
10722;DHT22;5412;59.450;18.124;2023-04-03T01:15:05;-1.40;99.90
10722;DHT22;5412;59.450;18.124;2023-04-03T01:17:38;-1.30;99.90
10722;DHT22;5412;59.450;18.124;2023-04-03T01:23:18;-1.30;99.90
10722;DHT22;5412;59.450;18.124;2023-04-03T01:25:50;-1.20;99.90
10722;DHT22;5412;59.450;18.124;2023-04-03T01:33:33;-1.40;99.90
10722;DHT22;5412;59.450;18.124;2023-04-03T01:35:59;-1.30;99.90
10722;DHT22;5412;59.450;18.124;2023-04-03T01:38:24;-1.30;99.90
10722;DHT22;5412;59.450;18.124;2023-04-03T01:40:51;-1.30;99.90
10722;DHT22;5412;59.450;18.124;2023-04-03T01:43:17;-1.30;99.90
10722;DHT22;5412;59.450;18.124;2023-04-03T01:45:43;-1.40;99.90
10722;DHT22;5412;59.450;18.124;2023-04-03T01:48:08;-1.30;99.90
10722;DHT22;5412;59.450;18.124;2023-04-03T01:50:34;-1.30;99.90
10722;DHT22;5412;59.450;18.124;2023-04-03T01:53:00;-1.30;99.90
10722;DHT22;5412;59.450;18.124;2023-04-03T01:55:26;-1.30;99.90
10722;DHT22;5412;59.450;18.124;2023-04-03T01:57:51;-1.20;99.90
10722;DHT22;5412;59.450;18.124;2023-04-03T02:00:17;-1.30;99.90
10722;DHT22;5412;59.450;18.124;2023-04-03T02:02:43;-1.20;99.90
10722;DHT22;5412;59.450;18.124;2023-04-03T02:05:09;-1.30;99.90
10722;DHT22;5412;59.450;18.124;2023-04-03T02:07:35;-1.30;99.90
10722;DHT22;5412;59.450;18.124;2023-04-03T02:10:01;-1.50;99.90
10722;DHT22;5412;59.450;18.124;2023-04-03T02:12:27;-1.40;99.90
10722;DHT22;5412;59.450;18.124;2023-04-03T02:14:53;-1.40;99.90
10722;DHT22;5412;59.450;18.124;2023-04-03T02:17:18;-1.40;99.90
10722;DHT22;5412;59.450;18.124;2023-04-03T02:19:44;-1.40;99.90
10722;DHT22;5412;59.450;18.124;2023-04-03T02:22:10;-1.50;99.90
10722;DHT22;5412;59.450;18.124;2023-04-03T02:24:36;-1.40;99.90
10722;DHT22;5412;59.450;18.124;2023-04-03T02:27:04;-1.40;99.90
10722;DHT22;5412;59.450;18.124;2023-04-03T02:29:30;-1.40;99.90
10722;DHT22;5412;59.450;18.124;2023-04-03T02:31:56;-1.30;99.90
10722;DHT22;5412;59.450;18.124;2023-04-03T02:34:21;-1.50;99.90
10722;DHT22;5412;59.450;18.124;2023-04-03T02:36:47;-1.50;99.90
10722;DHT22;5412;59.450;18.124;2023-04-03T02:39:13;-1.50;99.90
10722;DHT22;5412;59.450;18.124;2023-04-03T02:41:39;-1.40;99.90
10722;DHT22;5412;59.450;18.124;2023-04-03T02:44:06;-1.50;99.90
10722;DHT22;5412;59.450;18.124;2023-04-03T02:46:32;-1.50;99.90
10722;DHT22;5412;59.450;18.124;2023-04-03T02:48:58;-1.60;99.90
10722;DHT22;5412;59.450;18.124;2023-04-03T02:51:24;-1.70;99.90
10722;DHT22;5412;59.450;18.124;2023-04-03T02:53:50;-1.90;99.90
10722;DHT22;5412;59.450;18.124;2023-04-03T02:56:17;-2.00;99.90
10722;DHT22;5412;59.450;18.124;2023-04-03T02:58:44;-2.00;99.90
10722;DHT22;5412;59.450;18.124;2023-04-03T03:01:10;-2.10;99.90
10722;DHT22;5412;59.450;18.124;2023-04-03T03:03:36;-2.30;99.90
10722;DHT22;5412;59.450;18.124;2023-04-03T03:08:32;-2.60;99.90
10722;DHT22;5412;59.450;18.124;2023-04-03T03:10:58;-2.60;99.90
10722;DHT22;5412;59.450;18.124;2023-04-03T03:13:24;-2.80;99.90
10722;DHT22;5412;59.450;18.124;2023-04-03T03:15:50;-3.00;99.90
10722;DHT22;5412;59.450;18.124;2023-04-03T03:18:16;-3.00;99.90
10722;DHT22;5412;59.450;18.124;2023-04-03T03:20:41;-3.10;99.90
10722;DHT22;5412;59.450;18.124;2023-04-03T03:23:07;-3.40;99.90
10722;DHT22;5412;59.450;18.124;2023-04-03T03:25:33;-2.70;99.90
10722;DHT22;5412;59.450;18.124;2023-04-03T03:27:59;-2.50;99.90
10722;DHT22;5412;59.450;18.124;2023-04-03T03:30:24;-2.40;99.90
10722;DHT22;5412;59.450;18.124;2023-04-03T03:32:51;-2.40;99.90
10722;DHT22;5412;59.450;18.124;2023-04-03T03:35:17;-2.40;99.90
10722;DHT22;5412;59.450;18.124;2023-04-03T03:37:42;-2.50;99.90
10722;DHT22;5412;59.450;18.124;2023-04-03T03:40:09;-2.60;99.90
10722;DHT22;5412;59.450;18.124;2023-04-03T03:42:36;-2.80;99.90
10722;DHT22;5412;59.450;18.124;2023-04-03T03:45:02;-2.70;99.90
10722;DHT22;5412;59.450;18.124;2023-04-03T03:47:28;-2.50;99.90
10722;DHT22;5412;59.450;18.124;2023-04-03T03:49:54;-2.40;99.90
10722;DHT22;5412;59.450;18.124;2023-04-03T03:52:19;-2.50;99.90
10722;DHT22;5412;59.450;18.124;2023-04-03T03:54:45;-2.60;99.90
10722;DHT22;5412;59.450;18.124;2023-04-03T03:57:11;-2.70;99.90
10722;DHT22;5412;59.450;18.124;2023-04-03T03:59:37;-2.70;99.90
10722;DHT22;5412;59.450;18.124;2023-04-03T04:02:03;-2.70;99.90
10722;DHT22;5412;59.450;18.124;2023-04-03T04:04:29;-2.70;99.90
10722;DHT22;5412;59.450;18.124;2023-04-03T04:06:54;-2.80;99.90
10722;DHT22;5412;59.450;18.124;2023-04-03T04:09:20;-2.80;99.90
10722;DHT22;5412;59.450;18.124;2023-04-03T04:11:47;-2.70;99.90
10722;DHT22;5412;59.450;18.124;2023-04-03T04:14:12;-2.60;99.90
10722;DHT22;5412;59.450;18.124;2023-04-03T04:16:39;-2.80;99.90
10722;DHT22;5412;59.450;18.124;2023-04-03T04:19:04;-2.90;99.90
10722;DHT22;5412;59.450;18.124;2023-04-03T04:21:31;-3.00;99.90
10722;DHT22;5412;59.450;18.124;2023-04-03T04:23:56;-2.80;99.90
10722;DHT22;5412;59.450;18.124;2023-04-03T04:26:22;-2.80;99.90
10722;DHT22;5412;59.450;18.124;2023-04-03T04:28:48;-2.70;99.90
10722;DHT22;5412;59.450;18.124;2023-04-03T04:31:13;-2.50;99.90
10722;DHT22;5412;59.450;18.124;2023-04-03T04:33:39;-2.40;99.90
10722;DHT22;5412;59.450;18.124;2023-04-03T04:36:05;-2.40;99.90
10722;DHT22;5412;59.450;18.124;2023-04-03T04:38:31;-2.40;99.90
10722;DHT22;5412;59.450;18.124;2023-04-03T04:40:57;-2.30;99.90
10722;DHT22;5412;59.450;18.124;2023-04-03T04:43:23;-2.10;99.90
10722;DHT22;5412;59.450;18.124;2023-04-03T04:45:48;-2.00;99.90
10722;DHT22;5412;59.450;18.124;2023-04-03T04:48:14;-2.10;99.90
10722;DHT22;5412;59.450;18.124;2023-04-03T04:50:40;-2.00;99.90
10722;DHT22;5412;59.450;18.124;2023-04-03T04:53:06;-2.00;99.90
10722;DHT22;5412;59.450;18.124;2023-04-03T04:55:32;-2.00;99.90
10722;DHT22;5412;59.450;18.124;2023-04-03T04:57:57;-2.00;99.90
10722;DHT22;5412;59.450;18.124;2023-04-03T05:00:23;-2.00;99.90
10722;DHT22;5412;59.450;18.124;2023-04-03T05:02:49;-2.10;99.90
10722;DHT22;5412;59.450;18.124;2023-04-03T05:05:15;-2.30;99.90
10722;DHT22;5412;59.450;18.124;2023-04-03T05:07:41;-2.50;99.90
10722;DHT22;5412;59.450;18.124;2023-04-03T05:10:07;-2.40;99.90
10722;DHT22;5412;59.450;18.124;2023-04-03T05:12:33;-2.20;99.90
10722;DHT22;5412;59.450;18.124;2023-04-03T05:15:00;-2.20;99.90
10722;DHT22;5412;59.450;18.124;2023-04-03T05:17:25;-2.00;99.90
10722;DHT22;5412;59.450;18.124;2023-04-03T05:19:51;-1.90;99.90
10722;DHT22;5412;59.450;18.124;2023-04-03T05:22:17;-1.70;99.90
10722;DHT22;5412;59.450;18.124;2023-04-03T05:24:43;-1.70;99.90
10722;DHT22;5412;59.450;18.124;2023-04-03T05:27:09;-1.50;99.90
10722;DHT22;5412;59.450;18.124;2023-04-03T05:29:35;-1.40;99.90
10722;DHT22;5412;59.450;18.124;2023-04-03T05:32:00;-1.30;99.90
10722;DHT22;5412;59.450;18.124;2023-04-03T05:34:26;-1.30;99.90
10722;DHT22;5412;59.450;18.124;2023-04-03T05:36:53;-1.20;99.90
10722;DHT22;5412;59.450;18.124;2023-04-03T05:39:19;-1.10;99.90
10722;DHT22;5412;59.450;18.124;2023-04-03T05:41:44;-1.00;99.90
10722;DHT22;5412;59.450;18.124;2023-04-03T05:44:10;-0.90;99.90
10722;DHT22;5412;59.450;18.124;2023-04-03T05:46:36;-0.90;99.90
10722;DHT22;5412;59.450;18.124;2023-04-03T05:49:02;-0.80;99.90
10722;DHT22;5412;59.450;18.124;2023-04-03T05:51:33;-0.60;99.90
10722;DHT22;5412;59.450;18.124;2023-04-03T05:54:29;-0.60;99.90
10722;DHT22;5412;59.450;18.124;2023-04-03T05:56:55;-0.60;99.90
10722;DHT22;5412;59.450;18.124;2023-04-03T05:59:22;-0.40;99.90
10722;DHT22;5412;59.450;18.124;2023-04-03T06:01:48;-0.50;99.90
10722;DHT22;5412;59.450;18.124;2023-04-03T06:04:14;-0.30;99.90
10722;DHT22;5412;59.450;18.124;2023-04-03T06:06:58;-0.30;99.90
10722;DHT22;5412;59.450;18.124;2023-04-03T06:09:26;-0.10;99.90
10722;DHT22;5412;59.450;18.124;2023-04-03T06:11:53;-0.10;99.90
10722;DHT22;5412;59.450;18.124;2023-04-03T06:14:19;0.10;99.90
10722;DHT22;5412;59.450;18.124;2023-04-03T06:16:45;0.10;99.90
10722;DHT22;5412;59.450;18.124;2023-04-03T06:19:12;0.10;99.90
10722;DHT22;5412;59.450;18.124;2023-04-03T06:21:38;0.30;99.90
10722;DHT22;5412;59.450;18.124;2023-04-03T06:24:05;0.30;99.90
10722;DHT22;5412;59.450;18.124;2023-04-03T06:26:32;0.50;99.90
10722;DHT22;5412;59.450;18.124;2023-04-03T06:28:59;0.60;99.90
10722;DHT22;5412;59.450;18.124;2023-04-03T06:31:25;0.70;99.90
10722;DHT22;5412;59.450;18.124;2023-04-03T06:33:51;0.80;99.90
10722;DHT22;5412;59.450;18.124;2023-04-03T06:36:19;0.90;99.90
10722;DHT22;5412;59.450;18.124;2023-04-03T06:38:46;0.90;99.90
10722;DHT22;5412;59.450;18.124;2023-04-03T06:41:12;1.00;99.90
10722;DHT22;5412;59.450;18.124;2023-04-03T06:43:38;1.10;99.90
10722;DHT22;5412;59.450;18.124;2023-04-03T06:46:04;1.20;99.90
10722;DHT22;5412;59.450;18.124;2023-04-03T06:48:30;1.40;99.90
10722;DHT22;5412;59.450;18.124;2023-04-03T06:50:57;1.30;99.90
10722;DHT22;5412;59.450;18.124;2023-04-03T06:53:23;1.40;99.90
10722;DHT22;5412;59.450;18.124;2023-04-03T06:55:49;1.50;99.90
10722;DHT22;5412;59.450;18.124;2023-04-03T06:58:15;1.60;99.90
10722;DHT22;5412;59.450;18.124;2023-04-03T07:00:43;1.50;99.90
10722;DHT22;5412;59.450;18.124;2023-04-03T07:03:08;1.60;99.90
10722;DHT22;5412;59.450;18.124;2023-04-03T07:05:34;1.80;99.90
10722;DHT22;5412;59.450;18.124;2023-04-03T07:08:00;1.90;99.90
10722;DHT22;5412;59.450;18.124;2023-04-03T07:10:26;1.90;99.90
10722;DHT22;5412;59.450;18.124;2023-04-03T07:12:52;2.00;99.90
10722;DHT22;5412;59.450;18.124;2023-04-03T07:15:18;1.90;99.90
10722;DHT22;5412;59.450;18.124;2023-04-03T07:17:44;1.80;99.90
10722;DHT22;5412;59.450;18.124;2023-04-03T07:20:10;2.00;99.90
10722;DHT22;5412;59.450;18.124;2023-04-03T07:22:36;2.00;99.90
10722;DHT22;5412;59.450;18.124;2023-04-03T07:25:03;2.00;99.90
10722;DHT22;5412;59.450;18.124;2023-04-03T07:27:29;2.00;99.90
10722;DHT22;5412;59.450;18.124;2023-04-03T07:29:56;2.10;99.90
10722;DHT22;5412;59.450;18.124;2023-04-03T07:32:21;2.10;99.90
10722;DHT22;5412;59.450;18.124;2023-04-03T07:34:47;2.20;99.90
10722;DHT22;5412;59.450;18.124;2023-04-03T07:37:13;2.20;99.90
10722;DHT22;5412;59.450;18.124;2023-04-03T07:39:43;2.40;99.90
10722;DHT22;5412;59.450;18.124;2023-04-03T07:42:09;2.60;99.90
10722;DHT22;5412;59.450;18.124;2023-04-03T07:44:35;2.60;99.90
10722;DHT22;5412;59.450;18.124;2023-04-03T07:47:02;2.70;99.90
10722;DHT22;5412;59.450;18.124;2023-04-03T07:49:27;2.70;99.90
10722;DHT22;5412;59.450;18.124;2023-04-03T07:51:54;2.90;99.90
10722;DHT22;5412;59.450;18.124;2023-04-03T07:54:19;3.00;99.90
10722;DHT22;5412;59.450;18.124;2023-04-03T07:56:45;3.10;99.90
10722;DHT22;5412;59.450;18.124;2023-04-03T07:59:11;2.80;99.90
10722;DHT22;5412;59.450;18.124;2023-04-03T08:01:37;2.90;99.90
10722;DHT22;5412;59.450;18.124;2023-04-03T08:04:03;3.10;99.90
10722;DHT22;5412;59.450;18.124;2023-04-03T08:06:30;3.10;99.90
10722;DHT22;5412;59.450;18.124;2023-04-03T08:08:58;3.20;99.90
10722;DHT22;5412;59.450;18.124;2023-04-03T08:11:24;3.20;99.90
10722;DHT22;5412;59.450;18.124;2023-04-03T08:13:52;3.30;99.90
10722;DHT22;5412;59.450;18.124;2023-04-03T08:16:20;3.50;99.90
10722;DHT22;5412;59.450;18.124;2023-04-03T08:18:47;3.50;99.90
10722;DHT22;5412;59.450;18.124;2023-04-03T08:21:13;3.50;99.90
10722;DHT22;5412;59.450;18.124;2023-04-03T08:23:40;3.60;99.90
10722;DHT22;5412;59.450;18.124;2023-04-03T08:26:14;3.70;99.90
10722;DHT22;5412;59.450;18.124;2023-04-03T08:28:41;3.80;99.90
10722;DHT22;5412;59.450;18.124;2023-04-03T08:31:13;3.90;99.90
10722;DHT22;5412;59.450;18.124;2023-04-03T08:33:40;4.00;99.90
10722;DHT22;5412;59.450;18.124;2023-04-03T08:36:14;4.00;99.90
10722;DHT22;5412;59.450;18.124;2023-04-03T08:38:41;4.10;99.90
10722;DHT22;5412;59.450;18.124;2023-04-03T08:41:34;4.30;99.90
10722;DHT22;5412;59.450;18.124;2023-04-03T08:51:54;4.60;99.90
10722;DHT22;5412;59.450;18.124;2023-04-03T08:54:34;4.60;99.90
10722;DHT22;5412;59.450;18.124;2023-04-03T08:57:04;4.40;99.90
10722;DHT22;5412;59.450;18.124;2023-04-03T08:59:37;4.60;99.90
10722;DHT22;5412;59.450;18.124;2023-04-03T09:02:18;4.70;99.90
10722;DHT22;5412;59.450;18.124;2023-04-03T09:04:48;4.50;99.90
10722;DHT22;5412;59.450;18.124;2023-04-03T09:07:22;4.50;99.90
10722;DHT22;5412;59.450;18.124;2023-04-03T09:09:50;4.20;99.90
10722;DHT22;5412;59.450;18.124;2023-04-03T09:12:34;3.70;99.90
10722;DHT22;5412;59.450;18.124;2023-04-03T09:15:21;3.50;99.90
10722;DHT22;5412;59.450;18.124;2023-04-03T09:17:57;3.70;99.90
10722;DHT22;5412;59.450;18.124;2023-04-03T09:20:49;3.90;99.90
10722;DHT22;5412;59.450;18.124;2023-04-03T09:23:45;4.00;99.90
10722;DHT22;5412;59.450;18.124;2023-04-03T09:28:41;4.00;99.90
10722;DHT22;5412;59.450;18.124;2023-04-03T09:31:43;4.00;99.90
10722;DHT22;5412;59.450;18.124;2023-04-03T09:36:51;4.00;99.90
10722;DHT22;5412;59.450;18.124;2023-04-03T09:39:20;4.10;99.90
10722;DHT22;5412;59.450;18.124;2023-04-03T09:42:05;3.80;99.90
10722;DHT22;5412;59.450;18.124;2023-04-03T09:44:36;4.10;99.90
10722;DHT22;5412;59.450;18.124;2023-04-03T09:47:32;4.00;99.90
10722;DHT22;5412;59.450;18.124;2023-04-03T09:50:26;4.30;99.90
10722;DHT22;5412;59.450;18.124;2023-04-03T09:52:52;4.60;99.90
10722;DHT22;5412;59.450;18.124;2023-04-03T09:55:19;4.60;99.90
10722;DHT22;5412;59.450;18.124;2023-04-03T09:57:48;4.70;99.90
10722;DHT22;5412;59.450;18.124;2023-04-03T10:00:38;4.80;99.90
10722;DHT22;5412;59.450;18.124;2023-04-03T10:03:08;4.80;99.90
10722;DHT22;5412;59.450;18.124;2023-04-03T10:05:48;4.70;99.90
10722;DHT22;5412;59.450;18.124;2023-04-03T10:13:35;5.10;99.90
10722;DHT22;5412;59.450;18.124;2023-04-03T10:16:13;4.90;99.90
10722;DHT22;5412;59.450;18.124;2023-04-03T10:21:47;5.10;99.90
10722;DHT22;5412;59.450;18.124;2023-04-03T10:24:23;5.30;99.90
10722;DHT22;5412;59.450;18.124;2023-04-03T10:27:05;5.10;99.90
10722;DHT22;5412;59.450;18.124;2023-04-03T10:34:53;5.10;99.90
10722;DHT22;5412;59.450;18.124;2023-04-03T10:42:36;5.30;99.90
10722;DHT22;5412;59.450;18.124;2023-04-03T11:01:55;5.20;99.90
10722;DHT22;5412;59.450;18.124;2023-04-03T11:04:24;5.30;99.90
10722;DHT22;5412;59.450;18.124;2023-04-03T11:07:01;5.10;99.10
10722;DHT22;5412;59.450;18.124;2023-04-03T11:09:34;5.10;99.10
10722;DHT22;5412;59.450;18.124;2023-04-03T11:12:26;5.20;99.90
10722;DHT22;5412;59.450;18.124;2023-04-03T11:14:55;5.20;99.90
10722;DHT22;5412;59.450;18.124;2023-04-03T11:17:39;5.30;99.70
10722;DHT22;5412;59.450;18.124;2023-04-03T11:20:24;5.50;99.10
10722;DHT22;5412;59.450;18.124;2023-04-03T11:25:41;5.50;99.20
10722;DHT22;5412;59.450;18.124;2023-04-03T11:28:17;5.60;98.70
10722;DHT22;5412;59.450;18.124;2023-04-03T11:33:36;5.20;95.20
10722;DHT22;5412;59.450;18.124;2023-04-03T11:36:32;5.30;93.30
10722;DHT22;5412;59.450;18.124;2023-04-03T11:39:07;5.40;93.30
10722;DHT22;5412;59.450;18.124;2023-04-03T11:41:35;5.50;94.10
10722;DHT22;5412;59.450;18.124;2023-04-03T11:44:24;5.50;94.00
10722;DHT22;5412;59.450;18.124;2023-04-03T11:46:59;5.40;93.60
10722;DHT22;5412;59.450;18.124;2023-04-03T11:49:50;5.30;89.00
10722;DHT22;5412;59.450;18.124;2023-04-03T12:16:26;5.20;75.30
10722;DHT22;5412;59.450;18.124;2023-04-03T12:26:41;5.60;73.30
10722;DHT22;5412;59.450;18.124;2023-04-03T12:40:51;5.90;74.20
10722;DHT22;5412;59.450;18.124;2023-04-03T12:48:59;6.30;75.60
10722;DHT22;5412;59.450;18.124;2023-04-03T12:51:35;6.30;75.30
10722;DHT22;5412;59.450;18.124;2023-04-03T12:54:22;6.20;74.80
10722;DHT22;5412;59.450;18.124;2023-04-03T12:56:51;6.30;76.20
10722;DHT22;5412;59.450;18.124;2023-04-03T12:59:25;6.30;75.60
10722;DHT22;5412;59.450;18.124;2023-04-03T13:02:24;6.20;75.00
10722;DHT22;5412;59.450;18.124;2023-04-03T13:04:52;6.60;74.30
10722;DHT22;5412;59.450;18.124;2023-04-03T13:12:45;7.90;71.40
10722;DHT22;5412;59.450;18.124;2023-04-03T13:15:18;8.20;68.70
10722;DHT22;5412;59.450;18.124;2023-04-03T13:17:45;8.40;67.90
10722;DHT22;5412;59.450;18.124;2023-04-03T13:22:53;8.40;67.00
10722;DHT22;5412;59.450;18.124;2023-04-03T13:25:21;8.60;66.00
10722;DHT22;5412;59.450;18.124;2023-04-03T13:27:48;8.90;65.30
10722;DHT22;5412;59.450;18.124;2023-04-03T13:30:36;8.80;64.10
10722;DHT22;5412;59.450;18.124;2023-04-03T13:33:19;9.20;64.60
10722;DHT22;5412;59.450;18.124;2023-04-03T13:35:46;9.80;62.90
10722;DHT22;5412;59.450;18.124;2023-04-03T13:40:56;9.50;61.70
10722;DHT22;5412;59.450;18.124;2023-04-03T13:43:25;9.70;62.30
10722;DHT22;5412;59.450;18.124;2023-04-03T13:48:42;9.30;61.90
10722;DHT22;5412;59.450;18.124;2023-04-03T13:56:26;11.10;58.90
10722;DHT22;5412;59.450;18.124;2023-04-03T14:01:24;12.20;56.50
10722;DHT22;5412;59.450;18.124;2023-04-03T14:03:55;11.90;55.80
10722;DHT22;5412;59.450;18.124;2023-04-03T14:06:23;11.90;55.80
10722;DHT22;5412;59.450;18.124;2023-04-03T14:08:49;12.00;55.70
10722;DHT22;5412;59.450;18.124;2023-04-03T14:11:29;12.00;56.20
10722;DHT22;5412;59.450;18.124;2023-04-03T14:13:59;12.00;55.60
10722;DHT22;5412;59.450;18.124;2023-04-03T14:16:28;12.70;55.20
10722;DHT22;5412;59.450;18.124;2023-04-03T14:18:56;13.10;53.70
10722;DHT22;5412;59.450;18.124;2023-04-03T14:21:22;12.90;53.70
10722;DHT22;5412;59.450;18.124;2023-04-03T14:23:49;13.00;54.30
10722;DHT22;5412;59.450;18.124;2023-04-03T14:26:18;14.00;53.50
10722;DHT22;5412;59.450;18.124;2023-04-03T14:28:47;14.20;52.40
10722;DHT22;5412;59.450;18.124;2023-04-03T14:31:13;14.40;50.70
10722;DHT22;5412;59.450;18.124;2023-04-03T14:33:40;14.10;51.70
10722;DHT22;5412;59.450;18.124;2023-04-03T14:36:27;14.50;50.70
10722;DHT22;5412;59.450;18.124;2023-04-03T14:38:53;14.70;49.90
10722;DHT22;5412;59.450;18.124;2023-04-03T14:41:21;14.50;50.30
10722;DHT22;5412;59.450;18.124;2023-04-03T14:43:50;15.00;50.30
10722;DHT22;5412;59.450;18.124;2023-04-03T14:48:44;15.00;48.80
10722;DHT22;5412;59.450;18.124;2023-04-03T14:51:14;14.80;48.80
10722;DHT22;5412;59.450;18.124;2023-04-03T14:53:42;15.10;49.10
10722;DHT22;5412;59.450;18.124;2023-04-03T14:56:18;15.60;48.50
10722;DHT22;5412;59.450;18.124;2023-04-03T14:58:44;15.60;48.00
10722;DHT22;5412;59.450;18.124;2023-04-03T15:01:11;15.10;47.90
10722;DHT22;5412;59.450;18.124;2023-04-03T15:03:39;15.10;47.70
10722;DHT22;5412;59.450;18.124;2023-04-03T15:06:06;15.30;47.70
10722;DHT22;5412;59.450;18.124;2023-04-03T15:08:31;15.20;47.20
10722;DHT22;5412;59.450;18.124;2023-04-03T15:10:58;15.30;47.50
10722;DHT22;5412;59.450;18.124;2023-04-03T15:13:24;15.60;46.40
10722;DHT22;5412;59.450;18.124;2023-04-03T15:15:51;15.70;46.40
10722;DHT22;5412;59.450;18.124;2023-04-03T15:18:22;14.00;47.00
10722;DHT22;5412;59.450;18.124;2023-04-03T15:20:48;13.30;48.40
10722;DHT22;5412;59.450;18.124;2023-04-03T15:23:15;13.00;49.40
10722;DHT22;5412;59.450;18.124;2023-04-03T15:25:46;12.40;49.90
10722;DHT22;5412;59.450;18.124;2023-04-03T15:28:35;12.80;50.00
10722;DHT22;5412;59.450;18.124;2023-04-03T15:31:02;11.60;49.40
10722;DHT22;5412;59.450;18.124;2023-04-03T15:33:29;10.40;51.50
10722;DHT22;5412;59.450;18.124;2023-04-03T15:35:55;9.60;53.70
10722;DHT22;5412;59.450;18.124;2023-04-03T15:38:21;8.90;53.70
10722;DHT22;5412;59.450;18.124;2023-04-03T15:40:47;8.80;54.30
10722;DHT22;5412;59.450;18.124;2023-04-03T15:43:14;8.60;54.60
10722;DHT22;5412;59.450;18.124;2023-04-03T15:45:40;8.30;55.60
10722;DHT22;5412;59.450;18.124;2023-04-03T15:48:07;7.90;56.30
10722;DHT22;5412;59.450;18.124;2023-04-03T15:50:34;7.60;57.60
10722;DHT22;5412;59.450;18.124;2023-04-03T15:53:00;7.20;57.90
10722;DHT22;5412;59.450;18.124;2023-04-03T15:55:29;7.00;58.70
10722;DHT22;5412;59.450;18.124;2023-04-03T15:57:55;7.00;59.40
10722;DHT22;5412;59.450;18.124;2023-04-03T16:00:23;6.90;59.20
10722;DHT22;5412;59.450;18.124;2023-04-03T16:02:52;6.50;59.00
10722;DHT22;5412;59.450;18.124;2023-04-03T16:05:19;6.30;59.10
10722;DHT22;5412;59.450;18.124;2023-04-03T16:07:46;6.20;59.10
10722;DHT22;5412;59.450;18.124;2023-04-03T16:10:13;6.10;59.70
10722;DHT22;5412;59.450;18.124;2023-04-03T16:12:39;6.20;60.00
10722;DHT22;5412;59.450;18.124;2023-04-03T16:15:06;6.10;60.80
10722;DHT22;5412;59.450;18.124;2023-04-03T16:17:33;6.10;60.40
10722;DHT22;5412;59.450;18.124;2023-04-03T16:19:59;6.00;59.90
10722;DHT22;5412;59.450;18.124;2023-04-03T16:22:27;5.90;59.80
10722;DHT22;5412;59.450;18.124;2023-04-03T16:24:54;5.80;59.90
10722;DHT22;5412;59.450;18.124;2023-04-03T16:27:20;5.70;60.00
10722;DHT22;5412;59.450;18.124;2023-04-03T16:29:46;5.60;60.40
10722;DHT22;5412;59.450;18.124;2023-04-03T16:32:13;5.60;60.90
10722;DHT22;5412;59.450;18.124;2023-04-03T16:34:39;5.70;60.70
10722;DHT22;5412;59.450;18.124;2023-04-03T16:37:06;5.70;60.60
10722;DHT22;5412;59.450;18.124;2023-04-03T16:39:35;5.60;60.30
10722;DHT22;5412;59.450;18.124;2023-04-03T16:42:01;5.50;60.80
10722;DHT22;5412;59.450;18.124;2023-04-03T16:44:27;5.50;61.20
10722;DHT22;5412;59.450;18.124;2023-04-03T16:46:53;5.40;61.30
10722;DHT22;5412;59.450;18.124;2023-04-03T16:49:19;5.30;61.80
10722;DHT22;5412;59.450;18.124;2023-04-03T16:51:45;5.20;61.90
10722;DHT22;5412;59.450;18.124;2023-04-03T16:54:11;5.20;61.70
10722;DHT22;5412;59.450;18.124;2023-04-03T16:56:39;5.20;61.80
10722;DHT22;5412;59.450;18.124;2023-04-03T16:59:05;5.40;61.90
10722;DHT22;5412;59.450;18.124;2023-04-03T17:01:31;5.30;61.50
10722;DHT22;5412;59.450;18.124;2023-04-03T17:03:57;5.20;62.10
10722;DHT22;5412;59.450;18.124;2023-04-03T17:06:23;5.10;62.80
10722;DHT22;5412;59.450;18.124;2023-04-03T17:08:50;4.90;63.20
10722;DHT22;5412;59.450;18.124;2023-04-03T17:11:17;4.80;63.80
10722;DHT22;5412;59.450;18.124;2023-04-03T17:13:43;4.80;64.30
10722;DHT22;5412;59.450;18.124;2023-04-03T17:16:12;4.80;64.20
10722;DHT22;5412;59.450;18.124;2023-04-03T17:18:39;4.60;63.60
10722;DHT22;5412;59.450;18.124;2023-04-03T17:21:05;4.60;64.10
10722;DHT22;5412;59.450;18.124;2023-04-03T17:23:32;4.60;64.40
10722;DHT22;5412;59.450;18.124;2023-04-03T17:26:00;4.60;64.20
10722;DHT22;5412;59.450;18.124;2023-04-03T17:28:26;4.60;64.50
10722;DHT22;5412;59.450;18.124;2023-04-03T17:31:00;4.60;64.50
10722;DHT22;5412;59.450;18.124;2023-04-03T17:33:26;4.50;64.90
10722;DHT22;5412;59.450;18.124;2023-04-03T17:35:56;4.40;65.00
10722;DHT22;5412;59.450;18.124;2023-04-03T17:38:22;4.40;65.30
10722;DHT22;5412;59.450;18.124;2023-04-03T17:40:48;4.30;64.90
10722;DHT22;5412;59.450;18.124;2023-04-03T17:43:14;4.20;64.50
10722;DHT22;5412;59.450;18.124;2023-04-03T17:45:40;4.20;64.30
10722;DHT22;5412;59.450;18.124;2023-04-03T17:48:06;4.10;63.60
10722;DHT22;5412;59.450;18.124;2023-04-03T17:50:32;3.90;63.90
10722;DHT22;5412;59.450;18.124;2023-04-03T17:52:58;3.90;63.40
10722;DHT22;5412;59.450;18.124;2023-04-03T17:55:24;3.70;63.10
10722;DHT22;5412;59.450;18.124;2023-04-03T17:57:49;3.70;63.50
10722;DHT22;5412;59.450;18.124;2023-04-03T18:00:16;3.70;63.50
10722;DHT22;5412;59.450;18.124;2023-04-03T18:02:42;3.80;63.80
10722;DHT22;5412;59.450;18.124;2023-04-03T18:05:09;3.80;63.70
10722;DHT22;5412;59.450;18.124;2023-04-03T18:07:38;3.70;63.70
10722;DHT22;5412;59.450;18.124;2023-04-03T18:10:06;3.70;63.10
10722;DHT22;5412;59.450;18.124;2023-04-03T18:12:34;3.70;63.40